Time;durP1;ratioP1;P1;durP2;ratioP2;P2;SDS_P1;SDS_P2;PMS_P1;PMS_P2;Temp;Humidity;BMP_temperature;BMP_pressure;BME280_temperature;BME280_humidity;BME280_pressure;Samples;Min_cycle;Max_cycle;Signal;HPM_P1;HPM_P2
2022/10/17 00:01:13;;;;;;;5.10;2.30;;;;;;;;;;5064721;28;20032;-51
2022/10/17 00:03:40;;;;;;;3.70;1.90;;;;;;;;;;5063927;28;20032;-50
2022/10/17 00:06:07;;;;;;;4.22;2.15;;;;;;;;;;5064365;28;20029;-48
2022/10/17 00:08:34;;;;;;;2.47;2.00;;;;;;;;;;5067114;28;20111;-47
2022/10/17 00:11:03;;;;;;;3.45;1.80;;;;;;;;;;5084081;28;20111;-52
2022/10/17 00:13:29;;;;;;;2.92;1.67;;;;;;;;;;5084054;28;20030;-48
2022/10/17 00:15:55;;;;;;;4.40;2.00;;;;;;;;;;5083150;28;20024;-50
2022/10/17 00:18:21;;;;;;;2.72;1.83;;;;;;;;;;5083578;28;20020;-49
2022/10/17 00:20:47;;;;;;;3.47;1.83;;;;;;;;;;5084248;28;20518;-49
2022/10/17 00:23:14;;;;;;;3.17;2.00;;;;;;;;;;5084490;28;20020;-49
2022/10/17 00:25:40;;;;;;;4.25;1.92;;;;;;;;;;5083900;28;20085;-46
2022/10/17 00:28:08;;;;;;;2.60;2.10;;;;;;;;;;5079185;28;128190;-50
2022/10/17 00:30:34;;;;;;;4.22;1.90;;;;;;;;;;5083520;28;20035;-51
2022/10/17 00:33:00;;;;;;;2.15;1.95;;;;;;;;;;5085586;28;20028;-50
2022/10/17 00:35:27;;;;;;;3.60;2.10;;;;;;;;;;5084755;28;20016;-51
2022/10/17 00:37:53;;;;;;;3.22;1.92;;;;;;;;;;5085096;28;20032;-49
2022/10/17 00:40:20;;;;;;;4.82;2.35;;;;;;;;;;5084721;28;20035;-48
2022/10/17 00:42:46;;;;;;;3.97;2.05;;;;;;;;;;5084847;28;20545;-46
2022/10/17 00:45:15;;;;;;;3.17;1.85;;;;;;;;;;5084468;28;20024;-49
2022/10/17 00:47:42;;;;;;;3.40;2.00;;;;;;;;;;5084631;28;20107;-50
2022/10/17 00:50:09;;;;;;;5.18;1.83;;;;;;;;;;5084901;28;20511;-49
2022/10/17 00:52:35;;;;;;;2.40;1.80;;;;;;;;;;5084029;28;20055;-47
2022/10/17 00:55:11;;;;;;;4.70;1.77;;;;;;;;;;5085405;28;20495;-49
2022/10/17 00:57:39;;;;;;;4.85;1.73;;;;;;;;;;5084698;28;20107;-50
2022/10/17 01:00:06;;;;;;;;;;;;;;;;;;5085329;28;20034;-46
2022/10/17 01:02:33;;;;;;;;;;;;;;;;;;5085444;28;20375;-48
2022/10/17 01:04:59;;;;;;;;;;;;;;;;;;5085191;28;20361;-50
2022/10/17 01:07:26;;;;;;;;;;;;;;;;;;5074422;28;19908;-48
2022/10/17 01:09:53;;;;;;;;;;;;;;;;;;5065218;28;19958;-48
2022/10/17 01:12:19;;;;;;;;;;;;;;;;;;5065406;28;19908;-49
2022/10/17 01:14:45;;;;;;;;;;;;;;;;;;5080998;28;19912;-49
2022/10/17 01:17:11;;;;;;;;;;;;;;;;;;5084973;28;20420;-51
2022/10/17 01:19:38;;;;;;;;;;;;;;;;;;5084699;28;19995;-51
2022/10/17 01:22:05;;;;;;;;;;;;;;;;;;5085078;28;19969;-47
2022/10/17 01:24:31;;;;;;;;;;;;;;;;;;5085334;28;19994;-50
2022/10/17 01:26:57;;;;;;;;;;;;;;;;;;5084962;28;20003;-47
2022/10/17 01:29:24;;;;;;;;;;;;;;;;;;5072014;28;19923;-48
2022/10/17 01:31:51;;;;;;;;;;;;;;;;;;5068353;28;20304;-52
2022/10/17 01:34:17;;;;;;;;;;;;;;;;;;5076909;28;19908;-50
2022/10/17 01:36:43;;;;;;;;;;;;;;;;;;5088289;28;20179;-50
2022/10/17 01:39:09;;;;;;;;;;;;;;;;;;5088450;28;19926;-46
2022/10/17 01:41:36;;;;;;;;;;;;;;;;;;5088306;28;19957;-47
2022/10/17 01:44:03;;;;;;;;;;;;;;;;;;5072903;28;19905;-47
2022/10/17 01:46:29;;;;;;;;;;;;;;;;;;5067855;28;19916;-48
2022/10/17 01:48:55;;;;;;;;;;;;;;;;;;5068041;28;19965;-49
2022/10/17 01:51:22;;;;;;;;;;;;;;;;;;5067782;28;20575;-50
2022/10/17 01:53:48;;;;;;;;;;;;;;;;;;5068290;28;19904;-51
2022/10/17 01:56:15;;;;;;;;;;;;;;;;;;5073994;28;19914;-51
2022/10/17 01:58:41;;;;;;;;;;;;;;;;;;5087938;28;19943;-48
2022/10/17 02:01:07;;;;;;;;;;;;;;;;;;5087853;28;20406;-50
2022/10/17 02:03:34;;;;;;;;;;;;;;;;;;5088639;28;19908;-49
2022/10/17 02:06:00;;;;;;;;;;;;;;;;;;5089192;28;19907;-50
2022/10/17 02:08:26;;;;;;;;;;;;;;;;;;5087660;28;19961;-48
2022/10/17 02:10:52;;;;;;;;;;;;;;;;;;5086422;28;19904;-52
2022/10/17 02:13:19;;;;;;;;;;;;;;;;;;5087922;28;19907;-49
2022/10/17 02:15:44;;;;;;;;;;;;;;;;;;5088161;28;19904;-49
2022/10/17 02:18:10;;;;;;;;;;;;;;;;;;5087827;28;20184;-51
2022/10/17 02:20:36;;;;;;;;;;;;;;;;;;5087296;28;19904;-47
2022/10/17 02:23:02;;;;;;;;;;;;;;;;;;5088367;28;19904;-48
2022/10/17 02:25:29;;;;;;;;;;;;;;;;;;5086847;28;20049;-48
2022/10/17 02:27:55;;;;;;;;;;;;;;;;;;5087425;28;19973;-49
2022/10/17 02:30:22;;;;;;;;;;;;;;;;;;5087215;28;19904;-48
2022/10/17 02:32:48;;;;;;;;;;;;;;;;;;5087450;28;19991;-49
2022/10/17 02:35:13;;;;;;;;;;;;;;;;;;5087445;28;20022;-51
2022/10/17 02:37:39;;;;;;;;;;;;;;;;;;5086895;28;19908;-48
2022/10/17 02:40:05;;;;;;;;;;;;;;;;;;5085670;28;19912;-51
2022/10/17 02:42:31;;;;;;;;;;;;;;;;;;5087541;28;19904;-48
2022/10/17 02:44:57;;;;;;;;;;;;;;;;;;5087439;28;19949;-49
2022/10/17 02:47:23;;;;;;;;;;;;;;;;;;5086881;28;19999;-49
2022/10/17 02:49:49;;;;;;;;;;;;;;;;;;5087076;28;19904;-47
2022/10/17 02:52:16;;;;;;;;;;;;;;;;;;5086942;28;20390;-49
2022/10/17 02:54:41;;;;;;;;;;;;;;;;;;5086103;28;20359;-50
2022/10/17 02:57:07;;;;;;;;;;;;;;;;;;5086959;28;20029;-48
2022/10/17 02:59:33;;;;;;;;;;;;;;;;;;5087247;28;19908;-51
2022/10/17 03:01:59;;;;;;;;;;;;;;;;;;5087732;28;19930;-50
2022/10/17 03:04:25;;;;;;;;;;;;;;;;;;5086509;28;19908;-49
2022/10/17 03:06:51;;;;;;;;;;;;;;;;;;5086698;28;19908;-48
2022/10/17 03:09:17;;;;;;;;;;;;;;;;;;5086353;28;19934;-49
2022/10/17 03:11:43;;;;;;;;;;;;;;;;;;5086431;28;20018;-48
2022/10/17 03:14:08;;;;;;;;;;;;;;;;;;5073680;28;19919;-47
2022/10/17 03:16:34;;;;;;;;;;;;;;;;;;5066001;28;19930;-48
2022/10/17 03:19:00;;;;;;;;;;;;;;;;;;5072305;28;19912;-48
2022/10/17 03:21:26;;;;;;;;;;;;;;;;;;5086058;28;19911;-47
2022/10/17 03:23:53;;;;;;;;;;;;;;;;;;5086698;28;19986;-50
2022/10/17 03:26:19;;;;;;;;;;;;;;;;;;5071864;28;19908;-48
2022/10/17 03:28:45;;;;;;;;;;;;;;;;;;5065883;28;19916;-47
2022/10/17 03:31:12;;;;;;;;;;;;;;;;;;5067757;28;20378;-47
2022/10/17 03:33:38;;;;;;;;;;;;;;;;;;5065926;28;20387;-48
2022/10/17 03:36:03;;;;;;;;;;;;;;;;;;5067005;28;19916;-51
2022/10/17 03:38:29;;;;;;;;;;;;;;;;;;5065560;28;19904;-49
2022/10/17 03:40:55;;;;;;;;;;;;;;;;;;5065976;28;20039;-48
2022/10/17 03:43:21;;;;;;;;;;;;;;;;;;5065881;28;19981;-50
2022/10/17 03:45:48;;;;;;;;;;;;;;;;;;5084575;28;20378;-50
2022/10/17 03:48:14;;;;;;;;;;;;;;;;;;5085924;28;19916;-48
2022/10/17 03:50:40;;;;;;;;;;;;;;;;;;5085521;28;20408;-49
2022/10/17 03:53:06;;;;;;;;;;;;;;;;;;5085938;28;19995;-51
2022/10/17 03:55:32;;;;;;;;;;;;;;;;;;5086143;28;19911;-46
2022/10/17 03:57:58;;;;;;;;;;;;;;;;;;5086088;28;19904;-47
2022/10/17 04:00:24;;;;;;;;;;;;;;;;;;5084906;28;19908;-49
2022/10/17 04:02:50;;;;;;;;;;;;;;;;;;5085743;28;20042;-47
2022/10/17 04:05:16;;;;;;;;;;;;;;;;;;5085965;28;19939;-48
2022/10/17 04:07:43;;;;;;;;;;;;;;;;;;5084773;28;20397;-47
2022/10/17 04:10:09;;;;;;;;;;;;;;;;;;5066143;28;20433;-47
2022/10/17 04:12:35;;;;;;;;;;;;;;;;;;5065248;28;19910;-51
2022/10/17 04:15:01;;;;;;;;;;;;;;;;;;5080329;28;19919;-49
2022/10/17 04:17:28;;;;;;;;;;;;;;;;;;5085476;28;20344;-46
2022/10/17 04:19:54;;;;;;;;;;;;;;;;;;5085756;28;19995;-48
2022/10/17 04:22:20;;;;;;;;;;;;;;;;;;5085205;28;20343;-49
2022/10/17 04:24:47;;;;;;;;;;;;;;;;;;5075343;28;19922;-47
2022/10/17 04:27:13;;;;;;;;;;;;;;;;;;5083256;28;19963;-48
2022/10/17 04:29:39;;;;;;;;;;;;;;;;;;5084685;28;19974;-50
2022/10/17 04:32:05;;;;;;;;;;;;;;;;;;5087614;28;19984;-47
2022/10/17 04:34:31;;;;;;;;;;;;;;;;;;5087340;28;19990;-49
2022/10/17 04:36:57;;;;;;;;;;;;;;;;;;5086676;28;19930;-49
2022/10/17 04:39:23;;;;;;;;;;;;;;;;;;5084700;28;19935;-47
2022/10/17 04:41:48;;;;;;;;;;;;;;;;;;5086565;28;19950;-49
2022/10/17 04:44:14;;;;;;;;;;;;;;;;;;5086329;28;19918;-47
2022/10/17 04:46:40;;;;;;;;;;;;;;;;;;5086051;28;19934;-47
2022/10/17 04:49:06;;;;;;;;;;;;;;;;;;5085760;28;19925;-49
2022/10/17 04:51:32;;;;;;;;;;;;;;;;;;5085822;28;19908;-47
2022/10/17 04:53:58;;;;;;;;;;;;;;;;;;5086696;28;20010;-47
2022/10/17 04:56:24;;;;;;;;;;;;;;;;;;5086548;28;19962;-50
2022/10/17 04:58:50;;;;;;;;;;;;;;;;;;5085096;28;19908;-47
2022/10/17 05:01:16;;;;;;;;;;;;;;;;;;5086728;28;20510;-47
2022/10/17 05:03:42;;;;;;;;;;;;;;;;;;5088717;28;19999;-47
2022/10/17 05:06:08;;;;;;;;;;;;;;;;;;5090689;28;20407;-46
2022/10/17 05:08:34;;;;;;;;;;;;;;;;;;5089297;28;19912;-47
2022/10/17 05:11:00;;;;;;;;;;;;;;;;;;5091113;28;19904;-48
2022/10/17 05:13:26;;;;;;;;;;;;;;;;;;5089400;28;19912;-47
2022/10/17 05:15:52;;;;;;;;;;;;;;;;;;5078865;28;19935;-49
2022/10/17 05:18:18;;;;;;;;;;;;;;;;;;5070099;28;19905;-48
2022/10/17 05:20:45;;;;;;;;;;;;;;;;;;5070497;28;20002;-50
2022/10/17 05:23:11;;;;;;;;;;;;;;;;;;5083895;28;19915;-48
2022/10/17 05:25:37;;;;;;;;;;;;;;;;;;5090074;28;19908;-48
2022/10/17 05:28:03;;;;;;;;;;;;;;;;;;5089114;28;20000;-48
2022/10/17 05:30:29;;;;;;;;;;;;;;;;;;5088528;28;19981;-47
2022/10/17 05:32:54;;;;;;;;;;;;;;;;;;5076118;28;19993;-49
2022/10/17 05:35:21;;;;;;;;;;;;;;;;;;5082111;28;19907;-47
2022/10/17 05:37:47;;;;;;;;;;;;;;;;;;5081617;28;19907;-48
2022/10/17 05:40:13;;;;;;;;;;;;;;;;;;5077924;28;19915;-50
2022/10/17 05:42:39;;;;;;;;;;;;;;;;;;5085423;28;19961;-49
2022/10/17 05:45:05;;;;;;;;;;;;;;;;;;5081618;28;19930;-47
2022/10/17 05:47:31;;;;;;;;;;;;;;;;;;5085975;28;19912;-51
2022/10/17 05:49:57;;;;;;;;;;;;;;;;;;5088688;28;19912;-48
2022/10/17 05:52:23;;;;;;;;;;;;;;;;;;5081381;28;20023;-50
2022/10/17 05:54:49;;;;;;;;;;;;;;;;;;5070216;28;20403;-49
2022/10/17 05:57:15;;;;;;;;;;;;;;;;;;5070113;28;19904;-49
2022/10/17 05:59:41;;;;;;;;;;;;;;;;;;5066513;28;20001;-49
2022/10/17 06:02:07;;;;;;;;;;;;;;;;;;5084543;28;19943;-50
2022/10/17 06:04:32;;;;;;;;;;;;;;;;;;5076838;28;19909;-47
2022/10/17 06:06:58;;;;;;;;;;;;;;;;;;5074184;28;19916;-50
2022/10/17 06:09:24;;;;;;;;;;;;;;;;;;5089453;28;19911;-50
2022/10/17 06:11:50;;;;;;;;;;;;;;;;;;5086291;28;19951;-49
2022/10/17 06:14:16;;;;;;;;;;;;;;;;;;5085943;28;19931;-50
2022/10/17 06:16:42;;;;;;;;;;;;;;;;;;5087557;28;19972;-49
2022/10/17 06:19:10;;;;;;;;;;;;;;;;;;5085181;28;19915;-46
2022/10/17 06:21:37;;;;;;;;;;;;;;;;;;5081260;28;19912;-48
2022/10/17 06:24:03;;;;;;;;;;;;;;;;;;5070146;28;19915;-50
2022/10/17 06:26:29;;;;;;;;;;;;;;;;;;5086139;28;20295;-49
2022/10/17 06:28:55;;;;;;;;;;;;;;;;;;5077699;28;19995;-50
2022/10/17 06:31:21;;;;;;;;;;;;;;;;;;5078363;28;19915;-46
2022/10/17 06:33:47;;;;;;;;;;;;;;;;;;5073166;28;19916;-50
2022/10/17 06:36:13;;;;;;;;;;;;;;;;;;5070193;28;20450;-50
2022/10/17 06:38:38;;;;;;;;;;;;;;;;;;5087322;28;19995;-49
2022/10/17 06:41:07;;;;;;;;;;;;;;;;;;5088915;28;19910;-50
2022/10/17 06:43:33;;;;;;;;;;;;;;;;;;5088251;28;19904;-46
2022/10/17 06:45:58;;;;;;;;;;;;;;;;;;5089058;28;19908;-46
2022/10/17 06:48:24;;;;;;;;;;;;;;;;;;5088154;28;20444;-49
2022/10/17 06:50:50;;;;;;;;;;;;;;;;;;5088291;28;19950;-46
2022/10/17 06:53:16;;;;;;;;;;;;;;;;;;5088313;28;19910;-46
2022/10/17 06:55:42;;;;;;;;;;;;;;;;;;5088570;28;19908;-51
2022/10/17 06:58:08;;;;;;;;;;;;;;;;;;5088843;28;19904;-51
2022/10/17 07:00:34;;;;;;;;;;;;;;;;;;5087987;28;19949;-49
2022/10/17 07:03:00;;;;;;;;;;;;;;;;;;5088203;28;20295;-49
2022/10/17 07:05:25;;;;;;;;;;;;;;;;;;5088388;28;19918;-47
2022/10/17 07:07:51;;;;;;;;;;;;;;;;;;5088151;28;20339;-47
2022/10/17 07:10:17;;;;;;;;;;;;;;;;;;5088479;28;19904;-50
2022/10/17 07:12:44;;;;;;;;;;;;;;;;;;5088028;28;20035;-50
2022/10/17 07:15:10;;;;;;;;;;;;;;;;;;5088210;28;19904;-47
2022/10/17 07:17:36;;;;;;;;;;;;;;;;;;5088384;28;19927;-47
2022/10/17 07:20:02;;;;;;;;;;;;;;;;;;5088505;28;19936;-49
2022/10/17 07:22:28;;;;;;;;;;;;;;;;;;5087737;28;19904;-47
2022/10/17 07:24:53;;;;;;;;;;;;;;;;;;5088130;28;19913;-51
2022/10/17 07:27:19;;;;;;;;;;;;;;;;;;5087487;28;19973;-47
2022/10/17 07:29:45;;;;;;;;;;;;;;;;;;5087901;28;19961;-49
2022/10/17 07:32:11;;;;;;;;;;;;;;;;;;5088103;28;20022;-51
2022/10/17 07:34:37;;;;;;;;;;;;;;;;;;5088160;28;19998;-50
2022/10/17 07:37:05;;;;;;;;;;;;;;;;;;5087703;28;19915;-48
2022/10/17 07:39:31;;;;;;;;;;;;;;;;;;5087503;28;20002;-51
2022/10/17 07:41:57;;;;;;;;;;;;;;;;;;5087792;28;19951;-48
2022/10/17 07:44:23;;;;;;;;;;;;;;;;;;5087230;28;19950;-47
2022/10/17 07:46:49;;;;;;;;;;;;;;;;;;5071142;28;20399;-50
2022/10/17 07:49:15;;;;;;;;;;;;;;;;;;5067481;28;19962;-47
2022/10/17 07:51:41;;;;;;;;;;;;;;;;;;5066547;28;19911;-49
2022/10/17 07:54:07;;;;;;;;;;;;;;;;;;5067406;28;19949;-51
2022/10/17 07:56:33;;;;;;;;;;;;;;;;;;5067019;28;19908;-49
2022/10/17 07:58:59;;;;;;;;;;;;;;;;;;5067288;28;19987;-49
2022/10/17 08:01:26;;;;;;;;;;;;;;;;;;5067152;28;20372;-50
2022/10/17 08:03:52;;;;;;;;;;;;;;;;;;5067069;28;19900;-47
2022/10/17 08:06:18;;;;;;;;;;;;;;;;;;5067782;28;20341;-48
2022/10/17 08:08:44;;;;;;;;;;;;;;;;;;5066622;28;19916;-51
2022/10/17 08:11:10;;;;;;;;;;;;;;;;;;5067211;28;19905;-49
2022/10/17 08:13:36;;;;;;;;;;;;;;;;;;5066851;28;19904;-51
2022/10/17 08:16:02;;;;;;;;;;;;;;;;;;5067203;28;19991;-48
2022/10/17 08:18:28;;;;;;;;;;;;;;;;;;5066556;28;19908;-50
2022/10/17 08:20:54;;;;;;;;;;;;;;;;;;5067056;28;19915;-49
2022/10/17 08:23:20;;;;;;;;;;;;;;;;;;5068602;28;19908;-45
2022/10/17 08:25:45;;;;;;;;;;;;;;;;;;5077955;28;19912;-50
2022/10/17 08:28:11;;;;;;;;;;;;;;;;;;5080067;28;19927;-51
2022/10/17 08:30:37;;;;;;;;;;;;;;;;;;5077963;28;19912;-50
2022/10/17 08:33:03;;;;;;;;;;;;;;;;;;5070148;28;20399;-51
2022/10/17 08:35:29;;;;;;;;;;;;;;;;;;5085078;28;19908;-50
2022/10/17 08:37:55;;;;;;;;;;;;;;;;;;5089160;28;20349;-52
2022/10/17 08:40:21;;;;;;;;;;;;;;;;;;5091391;28;19908;-48
2022/10/17 08:42:47;;;;;;;;;;;;;;;;;;5090449;28;19908;-50
2022/10/17 08:45:13;;;;;;;;;;;;;;;;;;5091778;28;19972;-48
2022/10/17 08:47:39;;;;;;;;;;;;;;;;;;5092637;28;19911;-50
2022/10/17 08:50:05;;;;;;;;;;;;;;;;;;5080904;28;19912;-50
2022/10/17 08:52:31;;;;;;;;;;;;;;;;;;5113267;27;19957;-52
2022/10/17 08:54:58;;;;;;;;;;;;;;;;;;5104838;28;19908;-50
2022/10/17 08:57:24;;;;;;;;;;;;;;;;;;5092778;28;19904;-47
2022/10/17 08:59:51;;;;;;;;;;;;;;;;;;5091294;28;20378;-51
2022/10/17 09:02:16;;;;;;;;;;;;;;;;;;5091176;28;19925;-48
2022/10/17 09:04:42;;;;;;;;;;;;;;;;;;5092372;28;20245;-51
2022/10/17 09:07:08;;;;;;;;;;;;;;;;;;5092998;28;19904;-51
2022/10/17 09:09:34;;;;;;;;;;;;;;;;;;5083820;28;19967;-50
2022/10/17 09:12:00;;;;;;;;;;;;;;;;;;5077377;28;19973;-51
2022/10/17 09:14:26;;;;;;;;;;;;;;;;;;5086263;28;19908;-51
2022/10/17 09:16:52;;;;;;;;;;;;;;;;;;5088500;28;19904;-48
2022/10/17 09:19:18;;;;;;;;;;;;;;;;;;5084925;28;19908;-49
2022/10/17 09:21:44;;;;;;;;;;;;;;;;;;5071941;28;20377;-50
2022/10/17 09:24:10;;;;;;;;;;;;;;;;;;5080439;28;19915;-51
2022/10/17 09:26:35;;;;;;;;;;;;;;;;;;5090877;28;19927;-51
2022/10/17 09:29:01;;;;;;;;;;;;;;;;;;5091274;28;20355;-53
2022/10/17 09:31:27;;;;;;;;;;;;;;;;;;5082183;28;20008;-51
2022/10/17 09:33:53;;;;;;;;;;;;;;;;;;5084401;28;20365;-49
2022/10/17 09:36:19;;;;;;;;;;;;;;;;;;5087938;28;19907;-49
2022/10/17 09:38:45;;;;;;;;;;;;;;;;;;5089401;28;20371;-49
2022/10/17 09:41:11;;;;;;;;;;;;;;;;;;5079854;28;19923;-49
2022/10/17 09:43:37;;;;;;;;;;;;;;;;;;5091200;28;19966;-52
2022/10/17 09:46:03;;;;;;;;;;;;;;;;;;5073251;28;20387;-50
2022/10/17 09:48:29;;;;;;;;;;;;;;;;;;5082916;28;19957;-50
2022/10/17 09:50:54;;;;;;;;;;;;;;;;;;5072034;28;19940;-51
2022/10/17 09:53:20;;;;;;;;;;;;;;;;;;5081419;28;19908;-53
2022/10/17 09:55:47;;;;;;;;;;;;;;;;;;5075921;28;19954;-50
2022/10/17 09:58:13;;;;;;;;;;;;;;;;;;5091125;28;19904;-52
2022/10/17 10:00:39;;;;;;;;;;;;;;;;;;5090491;28;19957;-53
2022/10/17 10:03:04;;;;;;;;;;;;;;;;;;5090796;28;19911;-49
2022/10/17 10:05:30;;;;;;;;;;;;;;;;;;5090626;28;19904;-52
2022/10/17 10:07:56;;;;;;;;;;;;;;;;;;5091106;28;19908;-54
2022/10/17 10:10:22;;;;;;;;;;;;;;;;;;5087130;28;19947;-53
2022/10/17 10:12:48;;;;;;;;;;;;;;;;;;5090792;28;19912;-52
2022/10/17 10:15:14;;;;;;;;;;;;;;;;;;5089844;28;19907;-50
2022/10/17 10:17:40;;;;;;;;;;;;;;;;;;5088394;28;20268;-52
2022/10/17 10:20:06;;;;;;;;;;;;;;;;;;5089918;28;20398;-53
2022/10/17 10:22:32;;;;;;;;;;;;;;;;;;5089751;28;19904;-54
2022/10/17 10:24:58;;;;;;;;;;;;;;;;;;5088439;28;19912;-51
2022/10/17 10:27:24;;;;;;;;;;;;;;;;;;5089525;28;19995;-54
2022/10/17 10:29:50;;;;;;;;;;;;;;;;;;5089622;28;19930;-51
2022/10/17 10:32:17;;;;;;;;;;;;;;;;;;5089991;28;19904;-50
2022/10/17 10:34:43;;;;;;;;;;;;;;;;;;5088888;28;19912;-51
2022/10/17 10:37:23;;;;;;;2.07;1.40;;;;;;;;;;5088522;28;20358;-51
2022/10/17 10:39:51;;;;;;;1.90;1.42;;;;;;;;;;5089260;28;20024;-51
2022/10/17 10:42:19;;;;;;;2.67;1.40;;;;;;;;;;5089333;28;20077;-53
2022/10/17 10:44:46;;;;;;;1.38;1.27;;;;;;;;;;5088055;28;20040;-48
2022/10/17 10:47:16;;;;;;;1.80;1.40;;;;;;;;;;5082289;28;20020;-52
2022/10/17 10:49:43;;;;;;;1.58;1.38;;;;;;;;;;5080767;28;20028;-51
2022/10/17 10:52:13;;;;;;;1.70;1.50;;;;;;;;;;5087043;28;20221;-49
2022/10/17 10:54:43;;;;;;;2.15;1.70;;;;;;;;;;5080640;28;20529;-51
2022/10/17 10:57:13;;;;;;;1.33;1.23;;;;;;;;;;5086202;28;20016;-49
2022/10/17 10:59:45;;;;;;;1.20;1.10;;;;;;;;;;5085409;28;20063;-52
2022/10/17 11:02:15;;;;;;;1.05;1.02;;;;;;;;;;5087084;28;20356;-52
2022/10/17 11:04:41;;;;;;;1.60;1.13;;;;;;;;;;5085947;28;20457;-51
2022/10/17 11:07:18;;;;;;;2.63;1.55;;;;;;;;;;5087376;28;20032;-51
2022/10/17 11:09:48;;;;;;;2.20;1.20;;;;;;;;;;5086708;28;20445;-51
2022/10/17 11:12:14;;;;;;;1.75;1.10;;;;;;;;;;5085640;28;20024;-50
2022/10/17 11:14:46;;;;;;;1.98;1.50;;;;;;;;;;5073921;28;20029;-52
2022/10/17 11:17:18;;;;;;;1.23;1.13;;;;;;;;;;5081863;28;20031;-52
2022/10/17 11:19:48;;;;;;;1.80;1.20;;;;;;;;;;5086673;28;20035;-51
2022/10/17 11:22:27;;;;;;;1.65;1.05;;;;;;;;;;5086853;28;20042;-51
2022/10/17 11:24:58;;;;;;;1.55;1.40;;;;;;;;;;5067316;28;20048;-49
2022/10/17 11:27:25;;;;;;;2.65;1.17;;;;;;;;;;5080618;28;20057;-52
2022/10/17 11:29:51;;;;;;;2.83;1.27;;;;;;;;;;5087558;28;20671;-52
2022/10/17 11:32:20;;;;;;;0.98;0.95;;;;;;;;;;5086835;28;20017;-48
2022/10/17 11:34:48;;;;;;;1.40;1.30;;;;;;;;;;5085448;28;20054;-51
2022/10/17 11:37:18;;;;;;;1.08;0.90;;;;;;;;;;5086671;28;20407;-48
2022/10/17 11:39:48;;;;;;;1.08;0.98;;;;;;;;;;5086156;28;20069;-52
2022/10/17 11:42:34;;;;;;;1.35;1.02;;;;;;;;;;5085825;28;20040;-54
2022/10/17 11:45:09;;;;;;;1.45;1.23;;;;;;;;;;5085252;28;20031;-50
2022/10/17 11:47:42;;;;;;;1.38;1.13;;;;;;;;;;5086035;28;20035;-52
2022/10/17 11:50:24;;;;;;;1.20;1.00;;;;;;;;;;5084623;28;20055;-53
2022/10/17 11:52:50;;;;;;;1.20;1.05;;;;;;;;;;5086872;28;20020;-51
2022/10/17 11:55:21;;;;;;;1.58;1.20;;;;;;;;;;5086247;28;20031;-52
2022/10/17 11:58:06;;;;;;;2.75;0.90;;;;;;;;;;5085113;28;20085;-50
2022/10/17 12:00:45;;;;;;;1.20;1.02;;;;;;;;;;5086078;28;20266;-52
2022/10/17 12:03:37;;;;;;;1.30;1.20;;;;;;;;;;5086751;28;20020;-52
2022/10/17 12:06:03;;;;;;;1.05;0.90;;;;;;;;;;5084177;28;20040;-49
2022/10/17 12:08:33;;;;;;;1.95;1.10;;;;;;;;;;5085899;28;20024;-52
2022/10/17 12:10:59;;;;;;;1.33;0.95;;;;;;;;;;5086000;28;20081;-50
2022/10/17 12:13:29;;;;;;;2.50;1.20;;;;;;;;;;5085295;28;20073;-50
2022/10/17 12:15:55;;;;;;;1.25;0.90;;;;;;;;;;5075375;28;20514;-51
2022/10/17 12:18:24;;;;;;;0.90;0.90;;;;;;;;;;5065638;28;20028;-54
2022/10/17 12:20:59;;;;;;;1.15;0.80;;;;;;;;;;5082419;28;20107;-51
2022/10/17 12:23:29;;;;;;;1.80;1.20;;;;;;;;;;5085362;28;20103;-53
2022/10/17 12:26:00;;;;;;;1.20;1.10;;;;;;;;;;5086505;28;20111;-52
2022/10/17 12:28:26;;;;;;;2.55;1.25;;;;;;;;;;5086050;28;20039;-48
2022/10/17 12:31:22;;;;;;;2.05;1.10;;;;;;;;;;5085987;28;20514;-51
2022/10/17 12:33:55;;;;;;;1.23;1.13;;;;;;;;;;5086202;28;20558;-52
2022/10/17 12:36:27;;;;;;;1.88;1.50;;;;;;;;;;5080662;28;20103;-50
2022/10/17 12:39:02;;;;;;;2.45;1.40;;;;;;;;;;5086443;28;20430;-50
2022/10/17 12:41:37;;;;;;;2.58;1.52;;;;;;;;;;5085366;28;20020;-49
2022/10/17 12:44:13;;;;;;;1.63;1.20;;;;;;;;;;5086048;28;20032;-51
2022/10/17 12:46:45;;;;;;;1.20;1.10;;;;;;;;;;5084432;28;20028;-53
2022/10/17 12:49:20;;;;;;;1.30;1.20;;;;;;;;;;5086058;28;20034;-52
2022/10/17 12:52:05;;;;;;;2.10;1.33;;;;;;;;;;5085874;28;20073;-52
2022/10/17 12:54:37;;;;;;;1.30;1.20;;;;;;;;;;5085416;28;20507;-52
2022/10/17 12:57:13;;;;;;;1.13;1.00;;;;;;;;;;5072908;28;20035;-50
2022/10/17 12:59:43;;;;;;;2.10;1.23;;;;;;;;;;5085530;28;20032;-51
2022/10/17 13:02:15;;;;;;;1.60;1.45;;;;;;;;;;5085872;28;20020;-51
2022/10/17 13:04:41;;;;;;;1.60;1.13;;;;;;;;;;5085547;28;20066;-51
2022/10/17 13:07:16;;;;;;;1.42;1.33;;;;;;;;;;5085228;28;20086;-51
2022/10/17 13:09:43;;;;;;;1.38;1.10;;;;;;;;;;5083771;28;20029;-52
2022/10/17 13:12:25;;;;;;;1.20;1.10;;;;;;;;;;5077756;28;20111;-50
2022/10/17 13:14:52;;;;;;;2.05;1.40;;;;;;;;;;5065676;28;20112;-51
2022/10/17 13:17:29;;;;;;;1.40;0.90;;;;;;;;;;5065512;28;20052;-53
2022/10/17 13:19:56;;;;;;;2.08;1.00;;;;;;;;;;5064647;28;20024;-52
2022/10/17 13:22:29;;;;;;;1.00;0.90;;;;;;;;;;5064791;28;20029;-51
2022/10/17 13:25:09;;;;;;;3.00;1.13;;;;;;;;;;5067186;28;20032;-51
2022/10/17 13:27:36;;;;;;;2.13;1.50;;;;;;;;;;5081637;28;20404;-49
2022/10/17 13:30:19;;;;;;;1.33;1.20;;;;;;;;;;5089123;28;20032;-52
2022/10/17 13:32:45;;;;;;;2.60;1.40;;;;;;;;;;5089039;28;20025;-52
2022/10/17 13:35:13;;;;;;;2.95;1.50;;;;;;;;;;5089302;28;20035;-48
2022/10/17 13:37:43;;;;;;;1.50;1.20;;;;;;;;;;5086687;28;20023;-52
2022/10/17 13:40:16;;;;;;;1.88;1.50;;;;;;;;;;5073013;28;20032;-52
2022/10/17 13:42:43;;;;;;;1.60;1.20;;;;;;;;;;5085209;28;20055;-52
2022/10/17 13:45:20;;;;;;;1.27;1.17;;;;;;;;;;5089218;28;20511;-51
2022/10/17 13:47:47;;;;;;;2.05;1.10;;;;;;;;;;5086968;28;20445;-53
2022/10/17 13:50:19;;;;;;;3.28;1.38;;;;;;;;;;5085828;28;20384;-52
2022/10/17 13:52:45;;;;;;;1.65;1.00;;;;;;;;;;5069255;28;20617;-51
2022/10/17 13:55:16;;;;;;;1.52;1.42;;;;;;;;;;5068623;28;20108;-52
2022/10/17 13:57:42;;;;;;;2.00;1.10;;;;;;;;;;5069985;28;20020;-48
2022/10/17 14:00:28;;;;;;;1.58;1.48;;;;;;;;;;5068330;28;20021;-51
2022/10/17 14:02:54;;;;;;;2.63;1.20;;;;;;;;;;5071156;28;20016;-50
2022/10/17 14:05:22;;;;;;;0.95;0.95;;;;;;;;;;5082910;28;21035;-50
2022/10/17 14:07:59;;;;;;;5.97;1.20;;;;;;;;;;5068037;28;20507;-51
2022/10/17 14:10:28;;;;;;;1.30;1.20;;;;;;;;;;5075027;28;20020;-49
2022/10/17 14:12:54;;;;;;;1.63;1.05;;;;;;;;;;5069851;28;20032;-49
2022/10/17 14:15:23;;;;;;;1.10;1.00;;;;;;;;;;5079852;28;20076;-48
2022/10/17 14:17:54;;;;;;;2.00;0.98;;;;;;;;;;5080649;28;20027;-52
2022/10/17 14:20:22;;;;;;;1.77;1.13;;;;;;;;;;5069300;28;20032;-52
2022/10/17 14:22:48;;;;;;;1.08;0.98;;;;;;;;;;5074405;28;20047;-51
2022/10/17 14:25:30;;;;;;;1.02;0.93;;;;;;;;;;5086612;28;20047;-51
2022/10/17 14:28:03;;;;;;;1.10;0.80;;;;;;;;;;5088081;28;20077;-50
2022/10/17 14:30:34;;;;;;;1.30;1.20;;;;;;;;;;5087574;28;20113;-48
2022/10/17 14:33:02;;;;;;;1.67;1.00;;;;;;;;;;5071437;28;20024;-52
2022/10/17 14:35:28;;;;;;;3.50;1.15;;;;;;;;;;5081970;28;20017;-49
2022/10/17 14:37:58;;;;;;;1.58;1.00;;;;;;;;;;5072165;28;20107;-51
2022/10/17 14:40:26;;;;;;;1.27;0.85;;;;;;;;;;5076104;28;20028;-51
2022/10/17 14:42:53;;;;;;;2.15;0.90;;;;;;;;;;5080421;28;20155;-50
2022/10/17 14:45:39;;;;;;;0.95;0.70;;;;;;;;;;5076604;28;20044;-50
2022/10/17 14:48:10;;;;;;;0.70;0.70;;;;;;;;;;5076130;28;21900;-49
2022/10/17 14:50:36;;;;;;;0.70;0.60;;;;;;;;;;5076985;28;20032;-52
2022/10/17 14:53:02;;;;;;;1.65;0.80;;;;;;;;;;5075816;28;20020;-51
2022/10/17 14:55:30;;;;;;;2.70;0.60;;;;;;;;;;5079668;28;20535;-50
2022/10/17 14:57:56;;;;;;;0.80;0.80;;;;;;;;;;5078679;28;20495;-52
2022/10/17 15:00:23;;;;;;;1.83;1.30;;;;;;;;;;5073166;28;20042;-47
2022/10/17 15:02:49;;;;;;;1.25;1.10;;;;;;;;;;5075865;28;20024;-52
2022/10/17 15:05:16;;;;;;;1.88;1.05;;;;;;;;;;5076331;28;20038;-50
2022/10/17 15:07:42;;;;;;;1.65;0.90;;;;;;;;;;5078039;28;20128;-53
2022/10/17 15:10:22;;;;;;;7.72;1.00;;;;;;;;;;5070085;28;20028;-50
2022/10/17 15:12:48;;;;;;;1.00;0.95;;;;;;;;;;5076267;28;20044;-51
2022/10/17 15:15:14;;;;;;;2.38;1.30;;;;;;;;;;5082660;28;20101;-51
2022/10/17 15:17:40;;;;;;;4.22;1.33;;;;;;;;;;5078072;28;20056;-49
2022/10/17 15:20:12;;;;;;;1.85;1.30;;;;;;;;;;5082291;28;20111;-52
2022/10/17 15:22:38;;;;;;;2.28;1.20;;;;;;;;;;5081585;28;20052;-52
2022/10/17 15:25:04;;;;;;;1.80;1.08;;;;;;;;;;5078129;28;20060;-48
2022/10/17 15:27:31;;;;;;;1.90;0.93;;;;;;;;;;5077607;28;20107;-49
2022/10/17 15:29:57;;;;;;;0.70;0.70;;;;;;;;;;5080868;28;20116;-48
2022/10/17 15:32:23;;;;;;;1.25;1.00;;;;;;;;;;5076267;28;20031;-50
2022/10/17 15:34:49;;;;;;;1.10;0.90;;;;;;;;;;5079680;28;20099;-49
2022/10/17 15:37:20;;;;;;;2.15;0.93;;;;;;;;;;5086273;28;20028;-53
2022/10/17 15:39:51;;;;;;;2.55;1.40;;;;;;;;;;5087219;28;20191;-51
2022/10/17 15:42:17;;;;;;;1.17;0.95;;;;;;;;;;5082367;28;20095;-47
2022/10/17 15:44:48;;;;;;;1.25;0.80;;;;;;;;;;5080800;28;20044;-47
2022/10/17 15:47:19;;;;;;;0.90;0.90;;;;;;;;;;5087091;28;20028;-51
2022/10/17 15:49:45;;;;;;;0.90;0.65;;;;;;;;;;5071594;28;20033;-50
2022/10/17 15:52:11;;;;;;;1.08;0.98;;;;;;;;;;5068249;28;20078;-52
2022/10/17 15:54:37;;;;;;;1.00;0.80;;;;;;;;;;5073789;28;20507;-50
2022/10/17 15:57:03;;;;;;;0.80;0.80;;;;;;;;;;5088333;28;20024;-48